sensor_id;sensor_type;location;lat;lon;timestamp;temperature;humidity
52471;DHT22;38382;53.160;7.026;2023-12-20T00:01:22;5.10;99.90
52471;DHT22;38382;53.160;7.026;2023-12-20T00:03:48;5.20;99.90
52471;DHT22;38382;53.160;7.026;2023-12-20T00:06:14;5.10;99.90
52471;DHT22;38382;53.160;7.026;2023-12-20T00:08:40;5.70;99.90
52471;DHT22;38382;53.160;7.026;2023-12-20T00:11:05;5.10;99.90
52471;DHT22;38382;53.160;7.026;2023-12-20T00:13:31;5.10;99.90
52471;DHT22;38382;53.160;7.026;2023-12-20T00:15:57;5.30;99.90
52471;DHT22;38382;53.160;7.026;2023-12-20T00:18:23;5.10;99.90
52471;DHT22;38382;53.160;7.026;2023-12-20T00:20:49;5.20;99.90
52471;DHT22;38382;53.160;7.026;2023-12-20T00:23:15;5.50;99.90
52471;DHT22;38382;53.160;7.026;2023-12-20T00:25:41;5.20;99.90
52471;DHT22;38382;53.160;7.026;2023-12-20T00:28:06;5.70;99.90
52471;DHT22;38382;53.160;7.026;2023-12-20T00:30:32;5.60;99.90
52471;DHT22;38382;53.160;7.026;2023-12-20T00:32:58;4.80;99.90
52471;DHT22;38382;53.160;7.026;2023-12-20T00:35:23;4.80;99.90
52471;DHT22;38382;53.160;7.026;2023-12-20T00:37:49;4.90;99.90
52471;DHT22;38382;53.160;7.026;2023-12-20T00:40:15;4.80;99.90
52471;DHT22;38382;53.160;7.026;2023-12-20T00:42:41;4.90;99.90
52471;DHT22;38382;53.160;7.026;2023-12-20T00:45:07;4.90;99.90
52471;DHT22;38382;53.160;7.026;2023-12-20T00:47:33;4.90;99.90
52471;DHT22;38382;53.160;7.026;2023-12-20T00:49:58;5.60;99.90
52471;DHT22;38382;53.160;7.026;2023-12-20T00:52:24;4.80;99.90
52471;DHT22;38382;53.160;7.026;2023-12-20T00:54:51;5.80;99.90
52471;DHT22;38382;53.160;7.026;2023-12-20T00:57:17;4.90;99.90
52471;DHT22;38382;53.160;7.026;2023-12-20T00:59:43;4.90;99.90
52471;DHT22;38382;53.160;7.026;2023-12-20T01:02:08;5.30;99.90
52471;DHT22;38382;53.160;7.026;2023-12-20T01:04:35;5.10;99.90
52471;DHT22;38382;53.160;7.026;2023-12-20T01:07:01;5.90;99.90
52471;DHT22;38382;53.160;7.026;2023-12-20T01:09:27;5.00;99.90
52471;DHT22;38382;53.160;7.026;2023-12-20T01:11:53;5.60;99.90
52471;DHT22;38382;53.160;7.026;2023-12-20T01:14:19;5.70;99.90
52471;DHT22;38382;53.160;7.026;2023-12-20T01:16:45;5.10;99.90
52471;DHT22;38382;53.160;7.026;2023-12-20T01:19:10;5.90;99.90
52471;DHT22;38382;53.160;7.026;2023-12-20T01:21:36;5.10;99.90
52471;DHT22;38382;53.160;7.026;2023-12-20T01:24:02;5.10;99.90
52471;DHT22;38382;53.160;7.026;2023-12-20T01:26:28;5.10;99.90
52471;DHT22;38382;53.160;7.026;2023-12-20T01:28:54;5.10;99.90
52471;DHT22;38382;53.160;7.026;2023-12-20T01:31:19;5.20;99.90
52471;DHT22;38382;53.160;7.026;2023-12-20T01:33:45;5.20;99.90
52471;DHT22;38382;53.160;7.026;2023-12-20T01:36:11;5.30;99.90
52471;DHT22;38382;53.160;7.026;2023-12-20T01:38:37;5.80;99.90
52471;DHT22;38382;53.160;7.026;2023-12-20T01:41:03;5.50;99.90
52471;DHT22;38382;53.160;7.026;2023-12-20T01:43:29;5.20;99.90
52471;DHT22;38382;53.160;7.026;2023-12-20T01:45:57;5.10;99.90
52471;DHT22;38382;53.160;7.026;2023-12-20T01:48:24;5.30;99.90
52471;DHT22;38382;53.160;7.026;2023-12-20T01:50:51;5.20;99.90
52471;DHT22;38382;53.160;7.026;2023-12-20T01:53:17;5.20;99.90
52471;DHT22;38382;53.160;7.026;2023-12-20T01:55:44;5.20;99.90
52471;DHT22;38382;53.160;7.026;2023-12-20T01:58:11;5.30;99.90
52471;DHT22;38382;53.160;7.026;2023-12-20T02:00:38;5.30;99.90
52471;DHT22;38382;53.160;7.026;2023-12-20T02:03:04;5.40;99.90
52471;DHT22;38382;53.160;7.026;2023-12-20T02:05:31;5.30;99.90
52471;DHT22;38382;53.160;7.026;2023-12-20T02:07:56;5.30;99.90
52471;DHT22;38382;53.160;7.026;2023-12-20T02:10:23;5.70;99.90
52471;DHT22;38382;53.160;7.026;2023-12-20T02:12:49;5.40;99.90
52471;DHT22;38382;53.160;7.026;2023-12-20T02:15:15;5.40;99.90
52471;DHT22;38382;53.160;7.026;2023-12-20T02:17:40;5.50;99.90
52471;DHT22;38382;53.160;7.026;2023-12-20T02:20:07;5.40;99.90
52471;DHT22;38382;53.160;7.026;2023-12-20T02:22:32;5.40;99.90
52471;DHT22;38382;53.160;7.026;2023-12-20T02:24:58;5.40;99.90
52471;DHT22;38382;53.160;7.026;2023-12-20T02:27:24;5.50;99.90
52471;DHT22;38382;53.160;7.026;2023-12-20T02:29:50;5.40;99.90
52471;DHT22;38382;53.160;7.026;2023-12-20T02:32:20;5.60;99.90
52471;DHT22;38382;53.160;7.026;2023-12-20T02:34:47;5.40;99.90
52471;DHT22;38382;53.160;7.026;2023-12-20T02:37:13;5.40;99.90
52471;DHT22;38382;53.160;7.026;2023-12-20T02:39:39;5.40;99.90
52471;DHT22;38382;53.160;7.026;2023-12-20T02:42:05;5.40;99.90
52471;DHT22;38382;53.160;7.026;2023-12-20T02:44:30;5.50;99.90
52471;DHT22;38382;53.160;7.026;2023-12-20T02:46:56;5.40;99.90
52471;DHT22;38382;53.160;7.026;2023-12-20T02:49:22;5.30;99.90
52471;DHT22;38382;53.160;7.026;2023-12-20T02:51:47;5.60;99.90
52471;DHT22;38382;53.160;7.026;2023-12-20T02:54:13;5.40;99.90
52471;DHT22;38382;53.160;7.026;2023-12-20T02:56:39;6.10;99.90
52471;DHT22;38382;53.160;7.026;2023-12-20T02:59:05;5.40;99.90
52471;DHT22;38382;53.160;7.026;2023-12-20T03:01:31;5.30;99.90
52471;DHT22;38382;53.160;7.026;2023-12-20T03:03:57;5.30;99.90
52471;DHT22;38382;53.160;7.026;2023-12-20T03:06:23;5.30;99.90
52471;DHT22;38382;53.160;7.026;2023-12-20T03:08:50;5.30;99.90
52471;DHT22;38382;53.160;7.026;2023-12-20T03:11:15;5.30;99.90
52471;DHT22;38382;53.160;7.026;2023-12-20T03:13:41;5.30;99.90
52471;DHT22;38382;53.160;7.026;2023-12-20T03:16:11;5.50;99.90
52471;DHT22;38382;53.160;7.026;2023-12-20T03:18:37;5.30;99.90
52471;DHT22;38382;53.160;7.026;2023-12-20T03:21:04;6.50;99.90
52471;DHT22;38382;53.160;7.026;2023-12-20T03:23:30;5.40;99.90
52471;DHT22;38382;53.160;7.026;2023-12-20T03:25:56;5.30;99.90
52471;DHT22;38382;53.160;7.026;2023-12-20T03:28:22;5.30;99.90
52471;DHT22;38382;53.160;7.026;2023-12-20T03:30:48;5.50;99.90
52471;DHT22;38382;53.160;7.026;2023-12-20T03:33:14;5.50;99.90
52471;DHT22;38382;53.160;7.026;2023-12-20T03:35:40;5.30;99.90
52471;DHT22;38382;53.160;7.026;2023-12-20T03:38:06;5.20;99.90
52471;DHT22;38382;53.160;7.026;2023-12-20T03:40:32;5.20;99.90
52471;DHT22;38382;53.160;7.026;2023-12-20T03:42:58;5.20;99.90
52471;DHT22;38382;53.160;7.026;2023-12-20T03:45:23;5.70;99.90
52471;DHT22;38382;53.160;7.026;2023-12-20T03:47:49;5.30;99.90
52471;DHT22;38382;53.160;7.026;2023-12-20T03:50:15;5.50;99.90
52471;DHT22;38382;53.160;7.026;2023-12-20T03:52:41;5.30;99.90
52471;DHT22;38382;53.160;7.026;2023-12-20T03:55:07;5.40;99.90
52471;DHT22;38382;53.160;7.026;2023-12-20T03:57:32;5.40;99.90
52471;DHT22;38382;53.160;7.026;2023-12-20T03:59:58;5.50;99.90
52471;DHT22;38382;53.160;7.026;2023-12-20T04:02:24;5.40;99.90
52471;DHT22;38382;53.160;7.026;2023-12-20T04:04:50;5.50;99.90
52471;DHT22;38382;53.160;7.026;2023-12-20T04:07:18;6.10;99.90
52471;DHT22;38382;53.160;7.026;2023-12-20T04:09:44;5.70;99.90
52471;DHT22;38382;53.160;7.026;2023-12-20T04:12:09;6.40;99.90
52471;DHT22;38382;53.160;7.026;2023-12-20T04:14:35;5.50;99.90
52471;DHT22;38382;53.160;7.026;2023-12-20T04:17:01;5.50;99.90
52471;DHT22;38382;53.160;7.026;2023-12-20T04:19:27;5.40;99.90
52471;DHT22;38382;53.160;7.026;2023-12-20T04:21:52;5.50;99.90
52471;DHT22;38382;53.160;7.026;2023-12-20T04:24:18;6.30;99.90
52471;DHT22;38382;53.160;7.026;2023-12-20T04:26:44;5.40;99.90
52471;DHT22;38382;53.160;7.026;2023-12-20T04:29:09;5.50;99.90
52471;DHT22;38382;53.160;7.026;2023-12-20T04:31:35;5.40;99.90
52471;DHT22;38382;53.160;7.026;2023-12-20T04:34:01;5.40;99.90
52471;DHT22;38382;53.160;7.026;2023-12-20T04:36:26;5.40;99.90
52471;DHT22;38382;53.160;7.026;2023-12-20T04:38:53;5.40;99.90
52471;DHT22;38382;53.160;7.026;2023-12-20T04:41:19;5.40;99.90
52471;DHT22;38382;53.160;7.026;2023-12-20T04:43:44;5.60;99.90
52471;DHT22;38382;53.160;7.026;2023-12-20T04:46:10;5.40;99.90
52471;DHT22;38382;53.160;7.026;2023-12-20T04:48:36;5.40;99.90
52471;DHT22;38382;53.160;7.026;2023-12-20T04:51:02;6.20;99.90
52471;DHT22;38382;53.160;7.026;2023-12-20T04:53:28;5.40;99.90
52471;DHT22;38382;53.160;7.026;2023-12-20T04:55:53;5.50;99.90
52471;DHT22;38382;53.160;7.026;2023-12-20T04:58:19;5.50;99.90
52471;DHT22;38382;53.160;7.026;2023-12-20T05:00:45;5.50;99.90
52471;DHT22;38382;53.160;7.026;2023-12-20T05:03:11;5.60;99.90
52471;DHT22;38382;53.160;7.026;2023-12-20T05:05:36;5.60;99.90
52471;DHT22;38382;53.160;7.026;2023-12-20T05:08:02;5.70;99.90
52471;DHT22;38382;53.160;7.026;2023-12-20T05:10:29;5.80;99.90
52471;DHT22;38382;53.160;7.026;2023-12-20T05:12:55;6.10;99.90
52471;DHT22;38382;53.160;7.026;2023-12-20T05:15:20;6.00;99.90
52471;DHT22;38382;53.160;7.026;2023-12-20T05:17:46;5.80;99.90
52471;DHT22;38382;53.160;7.026;2023-12-20T05:20:12;5.90;99.90
52471;DHT22;38382;53.160;7.026;2023-12-20T05:22:37;5.90;99.90
52471;DHT22;38382;53.160;7.026;2023-12-20T05:25:04;6.00;99.90
52471;DHT22;38382;53.160;7.026;2023-12-20T05:27:30;6.00;99.90
52471;DHT22;38382;53.160;7.026;2023-12-20T05:29:55;6.00;99.90
52471;DHT22;38382;53.160;7.026;2023-12-20T05:32:23;6.00;99.90
52471;DHT22;38382;53.160;7.026;2023-12-20T05:34:49;6.00;99.90
52471;DHT22;38382;53.160;7.026;2023-12-20T05:37:15;6.00;99.90
52471;DHT22;38382;53.160;7.026;2023-12-20T05:39:40;6.00;99.90
52471;DHT22;38382;53.160;7.026;2023-12-20T05:42:06;6.00;99.90
52471;DHT22;38382;53.160;7.026;2023-12-20T05:44:32;6.00;99.90
52471;DHT22;38382;53.160;7.026;2023-12-20T05:46:57;6.20;99.90
52471;DHT22;38382;53.160;7.026;2023-12-20T05:49:23;6.10;99.90
52471;DHT22;38382;53.160;7.026;2023-12-20T05:51:49;6.10;99.90
52471;DHT22;38382;53.160;7.026;2023-12-20T05:54:16;6.10;99.90
52471;DHT22;38382;53.160;7.026;2023-12-20T05:56:42;6.10;99.90
52471;DHT22;38382;53.160;7.026;2023-12-20T05:59:08;6.20;99.90
52471;DHT22;38382;53.160;7.026;2023-12-20T06:01:33;6.20;99.90
52471;DHT22;38382;53.160;7.026;2023-12-20T06:03:59;6.20;99.90
52471;DHT22;38382;53.160;7.026;2023-12-20T06:06:25;6.20;99.90
52471;DHT22;38382;53.160;7.026;2023-12-20T06:08:50;6.50;99.90
52471;DHT22;38382;53.160;7.026;2023-12-20T06:11:16;6.40;99.90
52471;DHT22;38382;53.160;7.026;2023-12-20T06:13:42;6.20;99.90
52471;DHT22;38382;53.160;7.026;2023-12-20T06:16:08;6.20;99.90
52471;DHT22;38382;53.160;7.026;2023-12-20T06:18:33;6.20;99.90
52471;DHT22;38382;53.160;7.026;2023-12-20T06:20:59;6.20;99.90
52471;DHT22;38382;53.160;7.026;2023-12-20T06:23:25;6.20;99.90
52471;DHT22;38382;53.160;7.026;2023-12-20T06:25:51;6.30;99.90
52471;DHT22;38382;53.160;7.026;2023-12-20T06:28:16;6.30;99.90
52471;DHT22;38382;53.160;7.026;2023-12-20T06:30:42;6.30;99.90
52471;DHT22;38382;53.160;7.026;2023-12-20T06:33:08;6.30;99.90
52471;DHT22;38382;53.160;7.026;2023-12-20T06:35:35;6.40;99.90
52471;DHT22;38382;53.160;7.026;2023-12-20T06:38:01;6.40;99.90
52471;DHT22;38382;53.160;7.026;2023-12-20T06:40:26;6.40;99.90
52471;DHT22;38382;53.160;7.026;2023-12-20T06:42:52;6.40;99.90
52471;DHT22;38382;53.160;7.026;2023-12-20T06:45:18;6.40;99.90
52471;DHT22;38382;53.160;7.026;2023-12-20T06:47:43;6.40;99.90
52471;DHT22;38382;53.160;7.026;2023-12-20T06:50:09;6.50;99.90
52471;DHT22;38382;53.160;7.026;2023-12-20T06:52:35;6.40;99.90
52471;DHT22;38382;53.160;7.026;2023-12-20T06:55:01;6.50;99.90
52471;DHT22;38382;53.160;7.026;2023-12-20T06:57:26;6.80;99.90
52471;DHT22;38382;53.160;7.026;2023-12-20T06:59:53;6.40;99.90
52471;DHT22;38382;53.160;7.026;2023-12-20T07:02:19;6.40;99.90
52471;DHT22;38382;53.160;7.026;2023-12-20T07:04:44;6.40;99.90
52471;DHT22;38382;53.160;7.026;2023-12-20T07:07:10;6.50;99.90
52471;DHT22;38382;53.160;7.026;2023-12-20T07:09:36;7.20;99.90
52471;DHT22;38382;53.160;7.026;2023-12-20T07:12:02;6.50;99.90
52471;DHT22;38382;53.160;7.026;2023-12-20T07:14:28;6.40;99.90
52471;DHT22;38382;53.160;7.026;2023-12-20T07:16:54;6.50;99.90
52471;DHT22;38382;53.160;7.026;2023-12-20T07:19:20;6.60;99.90
52471;DHT22;38382;53.160;7.026;2023-12-20T07:21:46;6.50;99.90
52471;DHT22;38382;53.160;7.026;2023-12-20T07:24:11;6.50;99.90
52471;DHT22;38382;53.160;7.026;2023-12-20T07:26:37;6.50;99.90
52471;DHT22;38382;53.160;7.026;2023-12-20T07:29:04;6.50;99.90
52471;DHT22;38382;53.160;7.026;2023-12-20T07:31:30;6.50;99.90
52471;DHT22;38382;53.160;7.026;2023-12-20T07:33:56;6.50;99.90
52471;DHT22;38382;53.160;7.026;2023-12-20T07:36:22;6.50;99.90
52471;DHT22;38382;53.160;7.026;2023-12-20T07:38:47;6.60;99.90
52471;DHT22;38382;53.160;7.026;2023-12-20T07:41:13;6.50;99.90
52471;DHT22;38382;53.160;7.026;2023-12-20T07:43:41;6.80;99.90
52471;DHT22;38382;53.160;7.026;2023-12-20T07:46:08;6.60;99.90
52471;DHT22;38382;53.160;7.026;2023-12-20T07:48:37;6.60;99.90
52471;DHT22;38382;53.160;7.026;2023-12-20T07:51:06;6.90;99.90
52471;DHT22;38382;53.160;7.026;2023-12-20T07:53:33;6.70;99.90
52471;DHT22;38382;53.160;7.026;2023-12-20T07:56:00;6.70;99.90
52471;DHT22;38382;53.160;7.026;2023-12-20T07:58:26;6.70;99.90
52471;DHT22;38382;53.160;7.026;2023-12-20T08:00:51;6.70;99.90
52471;DHT22;38382;53.160;7.026;2023-12-20T08:03:17;6.70;99.90
52471;DHT22;38382;53.160;7.026;2023-12-20T08:05:43;6.70;99.90
52471;DHT22;38382;53.160;7.026;2023-12-20T08:08:08;6.80;99.90
52471;DHT22;38382;53.160;7.026;2023-12-20T08:10:34;6.80;99.90
52471;DHT22;38382;53.160;7.026;2023-12-20T08:13:00;6.90;99.90
52471;DHT22;38382;53.160;7.026;2023-12-20T08:15:26;6.90;99.90
52471;DHT22;38382;53.160;7.026;2023-12-20T08:17:51;7.20;99.90
52471;DHT22;38382;53.160;7.026;2023-12-20T08:20:17;7.00;99.90
52471;DHT22;38382;53.160;7.026;2023-12-20T08:22:43;7.00;99.90
52471;DHT22;38382;53.160;7.026;2023-12-20T08:25:09;7.10;99.90
52471;DHT22;38382;53.160;7.026;2023-12-20T08:27:39;7.00;99.90
52471;DHT22;38382;53.160;7.026;2023-12-20T08:30:07;7.10;99.90
52471;DHT22;38382;53.160;7.026;2023-12-20T08:32:33;7.10;99.90
52471;DHT22;38382;53.160;7.026;2023-12-20T08:34:59;7.00;99.90
52471;DHT22;38382;53.160;7.026;2023-12-20T08:37:25;7.00;99.90
52471;DHT22;38382;53.160;7.026;2023-12-20T08:39:51;7.10;99.90
52471;DHT22;38382;53.160;7.026;2023-12-20T08:42:17;7.20;99.90
52471;DHT22;38382;53.160;7.026;2023-12-20T08:44:42;7.20;99.90
52471;DHT22;38382;53.160;7.026;2023-12-20T08:47:08;7.20;99.90
52471;DHT22;38382;53.160;7.026;2023-12-20T08:49:34;7.30;99.90
52471;DHT22;38382;53.160;7.026;2023-12-20T08:51:59;7.30;99.90
52471;DHT22;38382;53.160;7.026;2023-12-20T08:54:25;7.40;99.90
52471;DHT22;38382;53.160;7.026;2023-12-20T08:56:51;7.40;99.90
52471;DHT22;38382;53.160;7.026;2023-12-20T08:59:16;6.90;99.90
52471;DHT22;38382;53.160;7.026;2023-12-20T09:01:44;6.60;99.90
52471;DHT22;38382;53.160;7.026;2023-12-20T09:04:10;6.20;99.90
52471;DHT22;38382;53.160;7.026;2023-12-20T09:06:35;6.30;99.90
52471;DHT22;38382;53.160;7.026;2023-12-20T09:09:01;5.80;99.90
52471;DHT22;38382;53.160;7.026;2023-12-20T09:11:27;5.70;99.90
52471;DHT22;38382;53.160;7.026;2023-12-20T09:13:52;5.60;99.90
52471;DHT22;38382;53.160;7.026;2023-12-20T09:16:18;5.40;99.90
52471;DHT22;38382;53.160;7.026;2023-12-20T09:18:44;5.40;99.90
52471;DHT22;38382;53.160;7.026;2023-12-20T09:21:09;5.40;99.90
52471;DHT22;38382;53.160;7.026;2023-12-20T09:23:35;5.30;99.90
52471;DHT22;38382;53.160;7.026;2023-12-20T09:26:02;5.40;99.90
52471;DHT22;38382;53.160;7.026;2023-12-20T09:28:28;5.40;99.90
52471;DHT22;38382;53.160;7.026;2023-12-20T09:30:54;5.40;99.90
52471;DHT22;38382;53.160;7.026;2023-12-20T09:33:19;5.40;99.90
52471;DHT22;38382;53.160;7.026;2023-12-20T09:35:45;5.40;99.90
52471;DHT22;38382;53.160;7.026;2023-12-20T09:38:11;5.40;99.90
52471;DHT22;38382;53.160;7.026;2023-12-20T09:40:41;5.50;99.90
52471;DHT22;38382;53.160;7.026;2023-12-20T09:43:19;5.50;99.90
52471;DHT22;38382;53.160;7.026;2023-12-20T09:45:47;5.50;99.90
52471;DHT22;38382;53.160;7.026;2023-12-20T09:48:13;5.60;99.90
52471;DHT22;38382;53.160;7.026;2023-12-20T09:50:40;5.60;99.90
52471;DHT22;38382;53.160;7.026;2023-12-20T09:53:09;5.60;99.90
52471;DHT22;38382;53.160;7.026;2023-12-20T09:55:36;5.90;99.90
52471;DHT22;38382;53.160;7.026;2023-12-20T09:58:02;5.70;99.90
52471;DHT22;38382;53.160;7.026;2023-12-20T10:00:28;5.60;99.90
52471;DHT22;38382;53.160;7.026;2023-12-20T10:02:58;5.60;99.90
52471;DHT22;38382;53.160;7.026;2023-12-20T10:05:29;5.60;99.90
52471;DHT22;38382;53.160;7.026;2023-12-20T10:07:55;5.70;99.90
52471;DHT22;38382;53.160;7.026;2023-12-20T10:10:21;5.80;99.90
52471;DHT22;38382;53.160;7.026;2023-12-20T10:13:10;5.80;99.90
52471;DHT22;38382;53.160;7.026;2023-12-20T10:15:36;6.00;99.90
52471;DHT22;38382;53.160;7.026;2023-12-20T10:18:03;5.90;99.90
52471;DHT22;38382;53.160;7.026;2023-12-20T10:20:30;5.90;99.90
52471;DHT22;38382;53.160;7.026;2023-12-20T10:22:57;6.00;99.90
52471;DHT22;38382;53.160;7.026;2023-12-20T10:25:23;6.40;99.90
52471;DHT22;38382;53.160;7.026;2023-12-20T10:27:50;7.00;99.90
52471;DHT22;38382;53.160;7.026;2023-12-20T10:30:16;6.00;99.90
52471;DHT22;38382;53.160;7.026;2023-12-20T10:32:42;6.10;99.90
52471;DHT22;38382;53.160;7.026;2023-12-20T10:35:08;6.10;99.90
52471;DHT22;38382;53.160;7.026;2023-12-20T10:37:38;7.10;99.90
52471;DHT22;38382;53.160;7.026;2023-12-20T10:40:05;6.20;99.90
52471;DHT22;38382;53.160;7.026;2023-12-20T10:42:32;6.30;99.90
52471;DHT22;38382;53.160;7.026;2023-12-20T10:45:00;6.40;99.90
52471;DHT22;38382;53.160;7.026;2023-12-20T10:47:26;6.50;99.90
52471;DHT22;38382;53.160;7.026;2023-12-20T10:49:55;6.60;99.90
52471;DHT22;38382;53.160;7.026;2023-12-20T10:52:23;6.70;99.90
52471;DHT22;38382;53.160;7.026;2023-12-20T10:54:50;6.80;99.90
52471;DHT22;38382;53.160;7.026;2023-12-20T10:57:17;7.30;99.90
52471;DHT22;38382;53.160;7.026;2023-12-20T10:59:45;7.00;99.90
52471;DHT22;38382;53.160;7.026;2023-12-20T11:02:14;7.10;99.90
52471;DHT22;38382;53.160;7.026;2023-12-20T11:04:50;7.10;99.90
52471;DHT22;38382;53.160;7.026;2023-12-20T11:07:33;7.20;99.90
52471;DHT22;38382;53.160;7.026;2023-12-20T11:10:14;7.20;99.90
52471;DHT22;38382;53.160;7.026;2023-12-20T11:15:14;7.30;99.90
52471;DHT22;38382;53.160;7.026;2023-12-20T11:17:40;7.30;99.90
52471;DHT22;38382;53.160;7.026;2023-12-20T11:20:10;7.50;99.90
52471;DHT22;38382;53.160;7.026;2023-12-20T11:22:37;7.50;99.90
52471;DHT22;38382;53.160;7.026;2023-12-20T11:25:06;7.50;99.90
52471;DHT22;38382;53.160;7.026;2023-12-20T11:27:36;7.50;99.90
52471;DHT22;38382;53.160;7.026;2023-12-20T11:30:06;7.40;99.90
52471;DHT22;38382;53.160;7.026;2023-12-20T11:32:34;7.30;99.90
52471;DHT22;38382;53.160;7.026;2023-12-20T11:37:37;7.00;99.90
52471;DHT22;38382;53.160;7.026;2023-12-20T11:40:06;7.00;99.90
52471;DHT22;38382;53.160;7.026;2023-12-20T11:42:42;7.00;99.90
52471;DHT22;38382;53.160;7.026;2023-12-20T11:45:13;7.00;99.90
52471;DHT22;38382;53.160;7.026;2023-12-20T11:47:45;6.90;99.90
52471;DHT22;38382;53.160;7.026;2023-12-20T11:50:11;6.90;99.90
52471;DHT22;38382;53.160;7.026;2023-12-20T11:52:37;6.80;99.90
52471;DHT22;38382;53.160;7.026;2023-12-20T11:55:03;6.80;99.90
52471;DHT22;38382;53.160;7.026;2023-12-20T11:57:30;6.70;99.90
52471;DHT22;38382;53.160;7.026;2023-12-20T11:59:56;6.70;99.90
52471;DHT22;38382;53.160;7.026;2023-12-20T12:02:22;6.90;99.90
52471;DHT22;38382;53.160;7.026;2023-12-20T12:04:49;7.20;99.90
52471;DHT22;38382;53.160;7.026;2023-12-20T12:07:18;7.50;99.90
52471;DHT22;38382;53.160;7.026;2023-12-20T12:09:45;7.80;99.90
52471;DHT22;38382;53.160;7.026;2023-12-20T12:12:12;7.80;99.90
52471;DHT22;38382;53.160;7.026;2023-12-20T12:14:38;7.90;99.90
52471;DHT22;38382;53.160;7.026;2023-12-20T12:17:13;7.80;99.90
52471;DHT22;38382;53.160;7.026;2023-12-20T12:19:40;7.70;99.90
52471;DHT22;38382;53.160;7.026;2023-12-20T12:22:07;7.60;99.90
52471;DHT22;38382;53.160;7.026;2023-12-20T12:24:36;7.40;99.90
52471;DHT22;38382;53.160;7.026;2023-12-20T12:27:03;7.30;99.90
52471;DHT22;38382;53.160;7.026;2023-12-20T12:29:29;7.30;99.90
52471;DHT22;38382;53.160;7.026;2023-12-20T12:31:55;7.20;99.90
52471;DHT22;38382;53.160;7.026;2023-12-20T12:34:21;7.30;99.90
52471;DHT22;38382;53.160;7.026;2023-12-20T12:36:48;7.10;99.90
52471;DHT22;38382;53.160;7.026;2023-12-20T12:39:14;7.10;99.90
52471;DHT22;38382;53.160;7.026;2023-12-20T12:41:43;7.00;99.90
52471;DHT22;38382;53.160;7.026;2023-12-20T12:44:08;7.00;99.90
52471;DHT22;38382;53.160;7.026;2023-12-20T12:46:34;7.00;99.90
52471;DHT22;38382;53.160;7.026;2023-12-20T12:49:00;7.00;99.90
52471;DHT22;38382;53.160;7.026;2023-12-20T12:51:26;7.00;99.90
52471;DHT22;38382;53.160;7.026;2023-12-20T12:53:52;7.00;99.90
52471;DHT22;38382;53.160;7.026;2023-12-20T12:56:18;7.00;99.90
52471;DHT22;38382;53.160;7.026;2023-12-20T12:58:44;7.00;99.90
52471;DHT22;38382;53.160;7.026;2023-12-20T13:01:10;7.00;99.90
52471;DHT22;38382;53.160;7.026;2023-12-20T13:03:36;7.00;99.90
52471;DHT22;38382;53.160;7.026;2023-12-20T13:06:02;7.00;99.90
52471;DHT22;38382;53.160;7.026;2023-12-20T13:08:29;7.00;99.90
52471;DHT22;38382;53.160;7.026;2023-12-20T13:10:55;7.00;99.90
52471;DHT22;38382;53.160;7.026;2023-12-20T13:13:22;7.00;99.90
52471;DHT22;38382;53.160;7.026;2023-12-20T13:15:48;7.00;99.90
52471;DHT22;38382;53.160;7.026;2023-12-20T13:18:16;7.00;99.90
52471;DHT22;38382;53.160;7.026;2023-12-20T13:20:44;7.00;99.90
52471;DHT22;38382;53.160;7.026;2023-12-20T13:23:09;7.00;99.90
52471;DHT22;38382;53.160;7.026;2023-12-20T13:25:35;7.00;99.90
52471;DHT22;38382;53.160;7.026;2023-12-20T13:28:01;7.00;99.90
52471;DHT22;38382;53.160;7.026;2023-12-20T13:30:28;7.20;99.90
52471;DHT22;38382;53.160;7.026;2023-12-20T13:33:28;7.00;99.90
52471;DHT22;38382;53.160;7.026;2023-12-20T13:35:56;7.10;99.90
52471;DHT22;38382;53.160;7.026;2023-12-20T13:38:23;7.10;99.90
52471;DHT22;38382;53.160;7.026;2023-12-20T13:40:49;7.20;99.90
52471;DHT22;38382;53.160;7.026;2023-12-20T13:43:15;7.20;99.90
52471;DHT22;38382;53.160;7.026;2023-12-20T13:45:46;7.10;99.90
52471;DHT22;38382;53.160;7.026;2023-12-20T13:48:12;7.00;99.90
52471;DHT22;38382;53.160;7.026;2023-12-20T13:50:37;7.00;99.90
52471;DHT22;38382;53.160;7.026;2023-12-20T13:53:03;7.00;99.90
52471;DHT22;38382;53.160;7.026;2023-12-20T13:55:29;6.90;99.90
52471;DHT22;38382;53.160;7.026;2023-12-20T13:57:56;6.90;99.90
52471;DHT22;38382;53.160;7.026;2023-12-20T14:00:23;7.60;99.90
52471;DHT22;38382;53.160;7.026;2023-12-20T14:02:49;6.80;99.90
52471;DHT22;38382;53.160;7.026;2023-12-20T14:05:15;6.70;99.90
52471;DHT22;38382;53.160;7.026;2023-12-20T14:07:44;6.70;99.90
52471;DHT22;38382;53.160;7.026;2023-12-20T14:10:14;6.70;99.90
52471;DHT22;38382;53.160;7.026;2023-12-20T14:12:39;6.70;99.90
52471;DHT22;38382;53.160;7.026;2023-12-20T14:15:06;6.80;99.90
52471;DHT22;38382;53.160;7.026;2023-12-20T14:17:40;6.60;99.90
52471;DHT22;38382;53.160;7.026;2023-12-20T14:20:07;6.60;99.90
52471;DHT22;38382;53.160;7.026;2023-12-20T14:22:34;6.50;99.90
52471;DHT22;38382;53.160;7.026;2023-12-20T14:25:00;6.50;99.90
52471;DHT22;38382;53.160;7.026;2023-12-20T14:27:26;6.50;99.90
52471;DHT22;38382;53.160;7.026;2023-12-20T14:29:56;6.40;99.90
52471;DHT22;38382;53.160;7.026;2023-12-20T14:32:22;6.40;99.90
52471;DHT22;38382;53.160;7.026;2023-12-20T14:34:47;6.40;99.90
52471;DHT22;38382;53.160;7.026;2023-12-20T14:37:13;7.00;99.90
52471;DHT22;38382;53.160;7.026;2023-12-20T14:39:39;6.40;99.90
52471;DHT22;38382;53.160;7.026;2023-12-20T14:42:10;6.40;99.90
52471;DHT22;38382;53.160;7.026;2023-12-20T14:44:39;6.40;99.90
52471;DHT22;38382;53.160;7.026;2023-12-20T14:47:06;6.30;99.90
52471;DHT22;38382;53.160;7.026;2023-12-20T14:49:32;6.30;99.90
52471;DHT22;38382;53.160;7.026;2023-12-20T14:51:58;6.20;99.90
52471;DHT22;38382;53.160;7.026;2023-12-20T14:54:25;6.30;99.90
52471;DHT22;38382;53.160;7.026;2023-12-20T14:56:50;6.20;99.90
52471;DHT22;38382;53.160;7.026;2023-12-20T14:59:16;6.20;99.90
52471;DHT22;38382;53.160;7.026;2023-12-20T15:01:44;6.20;99.90
52471;DHT22;38382;53.160;7.026;2023-12-20T15:04:10;6.10;99.90
52471;DHT22;38382;53.160;7.026;2023-12-20T15:06:36;6.20;99.90
52471;DHT22;38382;53.160;7.026;2023-12-20T15:09:02;6.20;99.90
52471;DHT22;38382;53.160;7.026;2023-12-20T15:11:31;6.20;99.90
52471;DHT22;38382;53.160;7.026;2023-12-20T15:13:57;6.10;99.90
52471;DHT22;38382;53.160;7.026;2023-12-20T15:16:25;6.10;99.90
52471;DHT22;38382;53.160;7.026;2023-12-20T15:18:52;6.10;99.90
52471;DHT22;38382;53.160;7.026;2023-12-20T15:21:19;6.10;99.90
52471;DHT22;38382;53.160;7.026;2023-12-20T15:23:45;6.00;99.90
52471;DHT22;38382;53.160;7.026;2023-12-20T15:26:20;6.00;99.90
52471;DHT22;38382;53.160;7.026;2023-12-20T15:28:45;6.00;99.90
52471;DHT22;38382;53.160;7.026;2023-12-20T15:31:11;6.00;99.90
52471;DHT22;38382;53.160;7.026;2023-12-20T15:33:39;6.00;99.90
52471;DHT22;38382;53.160;7.026;2023-12-20T15:36:05;6.00;99.90
52471;DHT22;38382;53.160;7.026;2023-12-20T15:38:31;6.00;99.90
52471;DHT22;38382;53.160;7.026;2023-12-20T15:40:56;6.00;99.90
52471;DHT22;38382;53.160;7.026;2023-12-20T15:43:22;5.90;99.90
52471;DHT22;38382;53.160;7.026;2023-12-20T15:45:48;5.90;99.90